LiveATC.Net - Listen to live air traffic control over the Internet!


ICAO: KPDT  IATA: PDT   Airport: Eastern Oregon Regional Airport at Pendleton
City: Pendleton   State/Province: Oregon
Country: United States   Continent: North America
KPDT METAR Weather: KPDT 151924Z 28006KT 10SM FEW010 SCT018 OVC085 03/01 A3012 RMK AO2 T00280006
KPDT Flight Activity (FlightAware)
KPDT Webcam:  (Airport Webcams) 
KPDT Airport Info   (iFlightPlanner)
KPDT VFR Sectional Chart   (iFlightPlanner) 
KPDT IFR Low Chart   (iFlightPlanner) 

KPDT Gnd/Twr/App
Feed Status: UP   Listeners: 0
Listen in your browser - HTML5 player (in browser, HTML5)
Click here to listen with your own player (launches your MP3 player)
FacilityFrequency
Chinook Approach/Departure133.150
Pendleton Ground121.900
Pendleton Tower119.700

NOTICE

Unauthorized use prohibited. See LiveATC.net Terms of Service


Airport/ARTCC Code
Frequency Search
(e.g., 124.400, 128.75)
Site-wide search
 


Browse Feeds
Top 50 Feeds
Coverage Map
Bad Weather Areas

LiveATC FAQ
Offer LiveATC feed
Contact LiveATC.net
Press Inquiries

LiveATC on iPhone
LiveATC on Android

Windows Phone
Windows 8/10

LiveATC Mobile
(Mobile browser)

ATC Audio Archives
Interesting Recordings

LiveATC Forums


Home Page
About LiveATC.net
Make a Donation
Terms of Use
Privacy Policy

Canadian Air Freqs

AIRMETs/SIGMETs

FAA Airport Status
Nat'l Airspace Status
Arrival Demand Charts


Server Software By:
Icecast.org
Liquidsoap